ADDS METAR Data INFO
IDs: Format: Raw Decoded Include TAF

Data at: 0352 UTC 19 Feb 2018

KATL 190252Z 11006KT 10SM BKN010 OVC036 16/14 A3028 RMK AO2 SLP251 T01560144 51010
KATL 190152Z 09006KT 10SM BKN012 OVC030 16/14 A3027 RMK AO2 SLP252 T01560144
KATL 190118Z 08004KT 10SM BKN012 OVC028 16/14 A3026 RMK AO2 T01560144
KATL 190052Z 10006KT 10SM FEW012 OVC025 16/14 A3026 RMK AO2 SLP246 T01560144
KATL 182352Z 12003KT 10SM OVC015 16/14 A3025 RMK AO2 RAE2257 SLP242 CIG 013V017 P0000 60003 T01560144 10189 20156 51007
KATL 182252Z 15006KT 8SM -RA FEW016 OVC020 16/14 A3024 RMK AO2 SLP240 P0003 T01560144
KATL 182235Z 16005KT 6SM -RA BR OVC020 16/14 A3024 RMK AO2 P0003 T01610139
KATL 182217Z 12004KT 2SM RA OVC020 17/13 A3023 RMK AO2 SFC VIS 3 P0001 T01670133
KATL 182152Z 16005KT 8SM -RA BKN019 BKN025 17/13 A3023 RMK AO2 RAB46 SLP237 P0000 T01670133
KATL 182052Z 19003KT 10SM BKN022 BKN030 BKN250 17/12 A3022 RMK AO2 SLP233 T01720117 56010
KATL 182048Z 17006KT 10SM BKN025 BKN030 BKN250 17/12 A3022 RMK AO2
KATL 181952Z 19007KT 10SM BKN030 BKN040 BKN250 18/11 A3023 RMK AO2 SLP232 T01830106
KATL 181852Z 16007KT 10SM BKN040 BKN100 BKN250 19/10 A3024 RMK AO2 SLP236 T01890100
KATL 181752Z 16006KT 10SM FEW050 SCT100 BKN250 18/09 A3026 RMK AO2 SLP243 T01780094 10183 20089 58001
KATL 181652Z VRB04KT 10SM FEW030 SCT100 SCT250 16/08 A3027 RMK AO2 SLP247 T01610083
KATL 181552Z 00000KT 10SM FEW030 SCT070 SCT250 14/08 A3028 RMK AO2 SLP250 T01440078
KATL 181452Z 34008KT 10SM FEW015 FEW065 FEW250 12/08 A3026 RMK AO2 SLP245 T01220078 51016
KATL 181352Z 32007KT 10SM FEW014 FEW055 FEW250 10/08 A3025 RMK AO2 SLP240 T01000078
KATL 181252Z 32007KT 10SM FEW014 FEW100 FEW250 09/08 A3023 RMK AO2 SLP233 T00940078
KATL 181152Z COR 32006KT 10SM FEW014 FEW055 10/08 A3021 RMK AO2 SLP227 60000 70002 T01000078 10156 20100 51015
KATL 181052Z 35011KT 10SM BKN014 BKN055 10/08 A3020 RMK AO2 SLP224 BKN014 V SCT T01000078
KATL 181035Z 33010KT 10SM BKN014 BKN055 11/08 A3020 RMK AO2 BKN014 V SCT T01060083
KATL 180952Z 33011KT 10SM BKN015 BKN046 BKN060 11/09 A3019 RMK AO2 SLP218 BKN015 V SCT T01110089
KATL 180852Z 32014KT 10SM SCT013 OVC043 12/10 A3017 RMK AO2 SLP210 60000 T01220100 52013
KATL 180752Z 32009KT 10SM FEW010 SCT048 BKN085 BKN200 13/12 A3015 RMK AO2 RAE02 SLP204 P0000 T01330117
KATL 180747Z 32011G17KT 10SM SCT010 BKN048 BKN085 13/12 A3015 RMK AO2 RAE02 P0000
KATL 180652Z 31011KT 10SM -RA BKN011 BKN028 OVC042 14/13 A3015 RMK AO2 RAE19B45 SLP203 PCPN VRY LGT P0000 T01440133
KATL 180646Z 32012KT 10SM -RA BKN011 BKN028 OVC037 14/13 A3015 RMK AO2 RAE19B45 PCPN VRY LGT P0000
KATL 180620Z 31013KT 10SM SCT009 SCT018 OVC028 15/13 A3014 RMK AO2 RAE19 P0000 T01500133
KATL 180552Z 33007KT 10SM -RA BKN009 OVC016 16/15 A3013 RMK AO2 SLP197 CIG 008V010 P0000 60002 T01560150 10217 20156 58001
KATL 180548Z COR 32007KT 10SM -RA BKN009 OVC016 16/15 A3013 RMK AO2 P0000
KATL 180504Z 30011KT 10SM -RA BKN013 BKN026 OVC080 17/16 A3013 RMK AO2 CIG 011V015 P0000 T01670156
KATL 180452Z 30010KT 10SM -RA SCT014 BKN024 OVC095 17/16 A3014 RMK AO2 DZE22RAB45 SLP204 P0000 T01670156 402500106
KATL 180416Z 31006G20KT 7SM -DZ SCT009 OVC018 17/16 A3012 RMK AO2 CIG 016V022 P0000 T01720161
KATL 180408Z 33014G20KT 7SM -DZ BKN009 OVC018 17/17 A3014 RMK AO2 CIG 008V010 P0000 T01720167
KATL 180352Z 32009KT 8SM -DZ OVC011 17/17 A3014 RMK AO2 RAE21DZB36 SLP203 CIG 009V013 P0000 T01720167
KATL 180337Z 30007KT 8SM -DZ BKN013 BKN022 OVC040 17/17 A3014 RMK AO2 RAE21DZB36 CIG 011V015 P0000 T01720167
KATL 180328Z 29008KT 10SM SCT013 BKN022 OVC040 17/17 A3013 RMK AO2 RAE21 P0000 T01720167
KATL 180252Z 29011KT 6SM -RA BR BKN032 OVC050 17/17 A3013 RMK AO2 WSHFT 0215 RAB18 SLP200 FROPA P0002 60002 T01720167 53019
KATL 180231Z 30010KT 8SM -RA BKN036 BKN050 OVC075 18/16 A3012 RMK AO2 WSHFT 0215 RAB18 PRESRR FROPA P0000 T01830156
KATL 180152Z 23006KT 10SM FEW050 BKN075 BKN090 BKN250 21/14 A3008 RMK AO2 SLP183 SHRA DSNT W-N T02060139
KATL 180052Z 24008KT 10SM BKN085 BKN250 21/13 A3008 RMK AO2 SLP182 T02110133
KATL 172352Z 24008KT 10SM BKN090 BKN250 22/13 A3007 RMK AO2 SLP180 T02170128 10250 20206 53002
KATL 172252Z 24013G25KT 10SM FEW055 BKN085 BKN250 23/12 A3006 RMK AO2 SLP176 T02280122
KATL 172152Z 25017G23KT 10SM SCT055 SCT090 BKN250 24/12 A3007 RMK AO2 PK WND 26029/2109 SLP178 T02390117
KATL 172052Z COR 24017G26KT 10SM SCT050 SCT080 BKN300 25/12 A3007 RMK AO2 PK WND 25027/2014 SLP177 T02500122 56015
KATL 171952Z 23012G23KT 10SM SCT035 SCT045 BKN250 24/16 A3007 RMK AO2 PK WND 21027/1929 SLP179 MDT CU N T02440156
KATL 171852Z 24009KT 10SM SCT030 BKN037 BKN047 BKN250 23/16 A3008 RMK AO2 SLP182 T02280161
KATL 171752Z 21006KT 10SM SCT025 BKN055 BKN250 21/16 A3011 RMK AO2 SLP193 T02060156 10206 20117 58013
KATL 171652Z 15005KT 10SM SCT014 SCT047 BKN070 BKN250 17/13 A3013 RMK AO2 SLP201 T01670128
KATL 171631Z VRB05KT 10SM SCT011 BKN041 OVC050 16/12 A3014 RMK AO2 T01610122